Terminal Aerodrome Forecast
Issued by NWS

Home | Current Version | Previous Version | Text Only | Print | Product List | Glossary On
Versions: 1 2 3 4 5 6 7 8 9 10 11 12 13 14 15 16 17 18 19
000
FTUS42 KFFC 300521
TAFRYY
TAF
KRYY 300521Z 3006/3106 09006KT P6SM FEW040 SCT200
     FM301400 35005KT P6SM FEW040
     FM301800 34007KT P6SM VCSH BKN050 PROB30 3019/3023 6SM -TSRA
      BKN040CB
     FM310000 34006KT P6SM SCT060 SCT250
      AMD NOT SKED TIL 301200=

USA.gov is the U.S. government's official web portal to all federal, state and local government web resources and services.